sensor_id;sensor_type;location;lat;lon;timestamp;temperature;humidity
41816;DHT22;27814;53.452;-6.180;2022-12-29T00:01:12;8.90;99.90
41816;DHT22;27814;53.452;-6.180;2022-12-29T00:03:44;8.90;99.90
41816;DHT22;27814;53.452;-6.180;2022-12-29T00:06:13;8.80;99.90
41816;DHT22;27814;53.452;-6.180;2022-12-29T00:08:41;8.80;99.90
41816;DHT22;27814;53.452;-6.180;2022-12-29T00:11:11;8.80;99.90
41816;DHT22;27814;53.452;-6.180;2022-12-29T00:13:40;8.80;99.90
41816;DHT22;27814;53.452;-6.180;2022-12-29T00:16:27;8.80;99.90
41816;DHT22;27814;53.452;-6.180;2022-12-29T00:18:57;8.80;99.90
41816;DHT22;27814;53.452;-6.180;2022-12-29T00:21:25;8.80;99.90
41816;DHT22;27814;53.452;-6.180;2022-12-29T00:24:14;8.80;99.90
41816;DHT22;27814;53.452;-6.180;2022-12-29T00:27:10;8.80;99.90
41816;DHT22;27814;53.452;-6.180;2022-12-29T00:29:56;8.80;99.90
41816;DHT22;27814;53.452;-6.180;2022-12-29T00:32:42;8.80;99.90
41816;DHT22;27814;53.452;-6.180;2022-12-29T00:35:33;8.80;99.90
41816;DHT22;27814;53.452;-6.180;2022-12-29T00:38:04;8.70;99.90
41816;DHT22;27814;53.452;-6.180;2022-12-29T00:40:51;8.70;99.90
41816;DHT22;27814;53.452;-6.180;2022-12-29T00:43:36;8.70;99.90
41816;DHT22;27814;53.452;-6.180;2022-12-29T00:46:21;8.70;99.90
41816;DHT22;27814;53.452;-6.180;2022-12-29T00:48:50;8.70;99.90
41816;DHT22;27814;53.452;-6.180;2022-12-29T00:51:37;8.70;99.90
41816;DHT22;27814;53.452;-6.180;2022-12-29T00:54:05;8.70;99.90
41816;DHT22;27814;53.452;-6.180;2022-12-29T00:56:34;8.70;99.90
41816;DHT22;27814;53.452;-6.180;2022-12-29T00:59:03;8.70;99.90
41816;DHT22;27814;53.452;-6.180;2022-12-29T01:01:33;8.70;99.90
41816;DHT22;27814;53.452;-6.180;2022-12-29T01:04:02;8.70;99.90
41816;DHT22;27814;53.452;-6.180;2022-12-29T01:06:31;8.70;99.90
41816;DHT22;27814;53.452;-6.180;2022-12-29T01:09:01;8.60;99.90
41816;DHT22;27814;53.452;-6.180;2022-12-29T01:11:47;8.60;99.90
41816;DHT22;27814;53.452;-6.180;2022-12-29T01:14:16;8.60;99.90
41816;DHT22;27814;53.452;-6.180;2022-12-29T01:16:45;8.60;99.90
41816;DHT22;27814;53.452;-6.180;2022-12-29T01:19:14;8.70;99.90
41816;DHT22;27814;53.452;-6.180;2022-12-29T01:21:44;8.60;99.90
41816;DHT22;27814;53.452;-6.180;2022-12-29T01:24:14;8.60;99.90
41816;DHT22;27814;53.452;-6.180;2022-12-29T01:26:43;8.60;99.90
41816;DHT22;27814;53.452;-6.180;2022-12-29T01:29:11;8.60;99.90
41816;DHT22;27814;53.452;-6.180;2022-12-29T01:31:40;8.70;99.90
41816;DHT22;27814;53.452;-6.180;2022-12-29T01:34:08;8.60;99.90
41816;DHT22;27814;53.452;-6.180;2022-12-29T01:36:36;8.60;99.90
41816;DHT22;27814;53.452;-6.180;2022-12-29T01:39:05;8.60;99.90
41816;DHT22;27814;53.452;-6.180;2022-12-29T01:41:34;8.60;99.90
41816;DHT22;27814;53.452;-6.180;2022-12-29T01:46:48;8.60;99.90
41816;DHT22;27814;53.452;-6.180;2022-12-29T01:49:21;8.60;99.90
41816;DHT22;27814;53.452;-6.180;2022-12-29T01:51:54;8.60;99.90
41816;DHT22;27814;53.452;-6.180;2022-12-29T01:54:27;8.60;99.90
41816;DHT22;27814;53.452;-6.180;2022-12-29T01:57:01;8.50;99.90
41816;DHT22;27814;53.452;-6.180;2022-12-29T01:59:33;8.50;99.90
41816;DHT22;27814;53.452;-6.180;2022-12-29T02:02:02;8.50;99.90
41816;DHT22;27814;53.452;-6.180;2022-12-29T02:04:32;8.50;99.90
41816;DHT22;27814;53.452;-6.180;2022-12-29T02:07:02;8.50;99.90
41816;DHT22;27814;53.452;-6.180;2022-12-29T02:09:33;8.50;99.90
41816;DHT22;27814;53.452;-6.180;2022-12-29T02:12:03;8.50;99.90
41816;DHT22;27814;53.452;-6.180;2022-12-29T02:14:31;8.50;99.90
41816;DHT22;27814;53.452;-6.180;2022-12-29T02:17:06;8.60;99.90
41816;DHT22;27814;53.452;-6.180;2022-12-29T02:20:00;8.50;99.90
41816;DHT22;27814;53.452;-6.180;2022-12-29T02:22:35;8.50;99.90
41816;DHT22;27814;53.452;-6.180;2022-12-29T02:25:32;8.40;99.90
41816;DHT22;27814;53.452;-6.180;2022-12-29T02:31:10;8.40;99.90
41816;DHT22;27814;53.452;-6.180;2022-12-29T02:33:53;8.50;99.90
41816;DHT22;27814;53.452;-6.180;2022-12-29T02:36:32;8.50;99.90
41816;DHT22;27814;53.452;-6.180;2022-12-29T02:39:08;8.40;99.90
41816;DHT22;27814;53.452;-6.180;2022-12-29T02:41:47;8.40;99.90
41816;DHT22;27814;53.452;-6.180;2022-12-29T02:44:27;8.40;99.90
41816;DHT22;27814;53.452;-6.180;2022-12-29T02:47:02;8.40;99.90
41816;DHT22;27814;53.452;-6.180;2022-12-29T02:49:38;8.40;99.90
41816;DHT22;27814;53.452;-6.180;2022-12-29T02:52:09;8.40;99.90
41816;DHT22;27814;53.452;-6.180;2022-12-29T02:54:41;8.40;99.90
41816;DHT22;27814;53.452;-6.180;2022-12-29T02:57:11;8.40;99.90
41816;DHT22;27814;53.452;-6.180;2022-12-29T02:59:40;8.40;99.90
41816;DHT22;27814;53.452;-6.180;2022-12-29T03:02:39;8.40;99.90
41816;DHT22;27814;53.452;-6.180;2022-12-29T03:05:25;8.40;99.90
41816;DHT22;27814;53.452;-6.180;2022-12-29T03:08:03;8.40;99.90
41816;DHT22;27814;53.452;-6.180;2022-12-29T03:10:41;8.40;99.90
41816;DHT22;27814;53.452;-6.180;2022-12-29T03:13:22;8.40;99.90
41816;DHT22;27814;53.452;-6.180;2022-12-29T03:16:14;8.40;99.90
41816;DHT22;27814;53.452;-6.180;2022-12-29T03:18:56;8.40;99.90
41816;DHT22;27814;53.452;-6.180;2022-12-29T03:21:32;8.40;99.90
41816;DHT22;27814;53.452;-6.180;2022-12-29T03:24:20;8.40;99.90
41816;DHT22;27814;53.452;-6.180;2022-12-29T03:26:53;8.40;99.90
41816;DHT22;27814;53.452;-6.180;2022-12-29T03:29:22;8.40;99.90
41816;DHT22;27814;53.452;-6.180;2022-12-29T03:31:52;8.40;99.90
41816;DHT22;27814;53.452;-6.180;2022-12-29T03:34:24;8.40;99.90
41816;DHT22;27814;53.452;-6.180;2022-12-29T03:36:57;8.40;99.90
41816;DHT22;27814;53.452;-6.180;2022-12-29T03:39:27;8.40;99.90
41816;DHT22;27814;53.452;-6.180;2022-12-29T03:41:59;8.40;99.90
41816;DHT22;27814;53.452;-6.180;2022-12-29T03:44:35;8.40;99.90
41816;DHT22;27814;53.452;-6.180;2022-12-29T03:47:03;8.40;99.90
41816;DHT22;27814;53.452;-6.180;2022-12-29T03:49:34;8.40;99.90
41816;DHT22;27814;53.452;-6.180;2022-12-29T03:52:03;8.50;99.90
41816;DHT22;27814;53.452;-6.180;2022-12-29T03:54:32;8.50;99.90
41816;DHT22;27814;53.452;-6.180;2022-12-29T03:57:00;8.50;99.90
41816;DHT22;27814;53.452;-6.180;2022-12-29T03:59:28;8.50;99.90
41816;DHT22;27814;53.452;-6.180;2022-12-29T04:01:57;8.50;99.90
41816;DHT22;27814;53.452;-6.180;2022-12-29T04:04:25;8.60;99.90
41816;DHT22;27814;53.452;-6.180;2022-12-29T04:06:55;8.60;99.90
41816;DHT22;27814;53.452;-6.180;2022-12-29T04:09:23;8.60;99.90
41816;DHT22;27814;53.452;-6.180;2022-12-29T04:11:52;8.60;99.90
41816;DHT22;27814;53.452;-6.180;2022-12-29T04:14:20;8.60;99.90
41816;DHT22;27814;53.452;-6.180;2022-12-29T04:16:48;8.60;99.90
41816;DHT22;27814;53.452;-6.180;2022-12-29T04:19:17;8.50;99.90
41816;DHT22;27814;53.452;-6.180;2022-12-29T04:21:45;8.50;99.90
41816;DHT22;27814;53.452;-6.180;2022-12-29T04:24:15;8.50;99.90
41816;DHT22;27814;53.452;-6.180;2022-12-29T04:26:44;8.50;99.90
41816;DHT22;27814;53.452;-6.180;2022-12-29T04:29:12;8.50;99.90
41816;DHT22;27814;53.452;-6.180;2022-12-29T04:31:41;8.40;99.90
41816;DHT22;27814;53.452;-6.180;2022-12-29T04:34:09;8.40;99.90
41816;DHT22;27814;53.452;-6.180;2022-12-29T04:36:38;8.40;99.90
41816;DHT22;27814;53.452;-6.180;2022-12-29T04:39:07;8.40;99.90
41816;DHT22;27814;53.452;-6.180;2022-12-29T04:41:37;8.40;99.90
41816;DHT22;27814;53.452;-6.180;2022-12-29T04:44:05;8.40;99.90
41816;DHT22;27814;53.452;-6.180;2022-12-29T04:46:33;8.40;99.90
41816;DHT22;27814;53.452;-6.180;2022-12-29T04:49:02;8.40;99.90
41816;DHT22;27814;53.452;-6.180;2022-12-29T04:51:36;8.30;99.90
41816;DHT22;27814;53.452;-6.180;2022-12-29T04:54:04;8.30;99.90
41816;DHT22;27814;53.452;-6.180;2022-12-29T04:56:32;8.30;99.90
41816;DHT22;27814;53.452;-6.180;2022-12-29T04:59:02;8.30;99.90
41816;DHT22;27814;53.452;-6.180;2022-12-29T05:01:31;8.30;99.90
41816;DHT22;27814;53.452;-6.180;2022-12-29T05:03:59;8.30;99.90
41816;DHT22;27814;53.452;-6.180;2022-12-29T05:06:28;8.30;99.90
41816;DHT22;27814;53.452;-6.180;2022-12-29T05:08:56;8.30;99.90
41816;DHT22;27814;53.452;-6.180;2022-12-29T05:11:25;8.30;99.90
41816;DHT22;27814;53.452;-6.180;2022-12-29T05:13:53;8.30;99.90
41816;DHT22;27814;53.452;-6.180;2022-12-29T05:16:22;8.30;99.90
41816;DHT22;27814;53.452;-6.180;2022-12-29T05:18:51;8.20;99.90
41816;DHT22;27814;53.452;-6.180;2022-12-29T05:21:20;8.20;99.90
41816;DHT22;27814;53.452;-6.180;2022-12-29T05:23:48;8.20;99.90
41816;DHT22;27814;53.452;-6.180;2022-12-29T05:26:17;8.30;99.90
41816;DHT22;27814;53.452;-6.180;2022-12-29T05:28:45;8.30;99.90
41816;DHT22;27814;53.452;-6.180;2022-12-29T05:31:13;8.30;99.90
41816;DHT22;27814;53.452;-6.180;2022-12-29T05:33:44;8.30;99.90
41816;DHT22;27814;53.452;-6.180;2022-12-29T05:36:12;8.30;99.90
41816;DHT22;27814;53.452;-6.180;2022-12-29T05:38:41;8.30;99.90
41816;DHT22;27814;53.452;-6.180;2022-12-29T05:41:09;8.30;99.90
41816;DHT22;27814;53.452;-6.180;2022-12-29T05:43:37;8.30;99.90
41816;DHT22;27814;53.452;-6.180;2022-12-29T05:46:06;8.30;99.90
41816;DHT22;27814;53.452;-6.180;2022-12-29T05:48:34;8.20;99.90
41816;DHT22;27814;53.452;-6.180;2022-12-29T05:51:05;8.20;99.90
41816;DHT22;27814;53.452;-6.180;2022-12-29T05:53:34;8.20;99.90
41816;DHT22;27814;53.452;-6.180;2022-12-29T05:56:02;8.20;99.90
41816;DHT22;27814;53.452;-6.180;2022-12-29T05:58:30;8.10;99.90
41816;DHT22;27814;53.452;-6.180;2022-12-29T06:00:59;8.20;99.90
41816;DHT22;27814;53.452;-6.180;2022-12-29T06:03:27;8.10;99.90
41816;DHT22;27814;53.452;-6.180;2022-12-29T06:05:56;8.10;99.90
41816;DHT22;27814;53.452;-6.180;2022-12-29T06:08:25;8.10;99.90
41816;DHT22;27814;53.452;-6.180;2022-12-29T06:10:54;8.10;99.90
41816;DHT22;27814;53.452;-6.180;2022-12-29T06:13:22;8.10;99.90
41816;DHT22;27814;53.452;-6.180;2022-12-29T06:15:51;8.00;99.90
41816;DHT22;27814;53.452;-6.180;2022-12-29T06:18:19;8.00;99.90
41816;DHT22;27814;53.452;-6.180;2022-12-29T06:20:48;8.00;99.90
41816;DHT22;27814;53.452;-6.180;2022-12-29T06:23:16;8.00;99.90
41816;DHT22;27814;53.452;-6.180;2022-12-29T06:25:48;8.00;99.90
41816;DHT22;27814;53.452;-6.180;2022-12-29T06:28:16;8.00;99.90
41816;DHT22;27814;53.452;-6.180;2022-12-29T06:30:45;8.00;99.90
41816;DHT22;27814;53.452;-6.180;2022-12-29T06:33:15;7.90;99.90
41816;DHT22;27814;53.452;-6.180;2022-12-29T06:35:43;7.90;99.90
41816;DHT22;27814;53.452;-6.180;2022-12-29T06:38:12;7.90;99.90
41816;DHT22;27814;53.452;-6.180;2022-12-29T06:40:42;7.90;99.90
41816;DHT22;27814;53.452;-6.180;2022-12-29T06:43:13;7.90;99.90
41816;DHT22;27814;53.452;-6.180;2022-12-29T06:45:42;7.90;99.90
41816;DHT22;27814;53.452;-6.180;2022-12-29T06:48:10;7.80;99.90
41816;DHT22;27814;53.452;-6.180;2022-12-29T06:50:38;7.80;99.90
41816;DHT22;27814;53.452;-6.180;2022-12-29T06:53:07;7.90;99.90
41816;DHT22;27814;53.452;-6.180;2022-12-29T06:55:35;7.80;99.90
41816;DHT22;27814;53.452;-6.180;2022-12-29T06:58:03;7.80;99.90
41816;DHT22;27814;53.452;-6.180;2022-12-29T07:00:33;7.80;99.90
41816;DHT22;27814;53.452;-6.180;2022-12-29T07:03:02;7.80;99.90
41816;DHT22;27814;53.452;-6.180;2022-12-29T07:05:30;7.80;99.90
41816;DHT22;27814;53.452;-6.180;2022-12-29T07:07:59;7.80;99.90
41816;DHT22;27814;53.452;-6.180;2022-12-29T07:10:28;7.70;99.90
41816;DHT22;27814;53.452;-6.180;2022-12-29T07:12:56;7.80;99.90
41816;DHT22;27814;53.452;-6.180;2022-12-29T07:15:25;7.70;99.90
41816;DHT22;27814;53.452;-6.180;2022-12-29T07:17:55;7.70;99.90
41816;DHT22;27814;53.452;-6.180;2022-12-29T07:20:23;7.70;99.90
41816;DHT22;27814;53.452;-6.180;2022-12-29T07:22:53;7.70;99.90
41816;DHT22;27814;53.452;-6.180;2022-12-29T07:25:21;7.70;99.90
41816;DHT22;27814;53.452;-6.180;2022-12-29T07:27:50;7.70;99.90
41816;DHT22;27814;53.452;-6.180;2022-12-29T07:30:18;7.60;99.90
41816;DHT22;27814;53.452;-6.180;2022-12-29T07:32:46;7.60;99.90
41816;DHT22;27814;53.452;-6.180;2022-12-29T07:35:16;7.60;99.90
41816;DHT22;27814;53.452;-6.180;2022-12-29T07:37:44;7.60;99.90
41816;DHT22;27814;53.452;-6.180;2022-12-29T07:40:13;7.60;99.90
41816;DHT22;27814;53.452;-6.180;2022-12-29T07:42:41;7.60;99.90
41816;DHT22;27814;53.452;-6.180;2022-12-29T07:45:10;7.60;99.90
41816;DHT22;27814;53.452;-6.180;2022-12-29T07:47:38;7.60;99.90
41816;DHT22;27814;53.452;-6.180;2022-12-29T07:50:07;7.60;99.90
41816;DHT22;27814;53.452;-6.180;2022-12-29T07:52:37;7.60;99.90
41816;DHT22;27814;53.452;-6.180;2022-12-29T07:55:06;7.60;99.90
41816;DHT22;27814;53.452;-6.180;2022-12-29T07:57:34;7.60;99.90
41816;DHT22;27814;53.452;-6.180;2022-12-29T08:00:03;7.60;99.90
41816;DHT22;27814;53.452;-6.180;2022-12-29T08:02:32;7.60;99.90
41816;DHT22;27814;53.452;-6.180;2022-12-29T08:05:00;7.60;99.90
41816;DHT22;27814;53.452;-6.180;2022-12-29T08:07:29;7.60;99.90
41816;DHT22;27814;53.452;-6.180;2022-12-29T08:09:58;7.50;99.90
41816;DHT22;27814;53.452;-6.180;2022-12-29T08:12:28;7.50;99.90
41816;DHT22;27814;53.452;-6.180;2022-12-29T08:14:57;7.50;99.90
41816;DHT22;27814;53.452;-6.180;2022-12-29T08:17:25;7.60;99.90
41816;DHT22;27814;53.452;-6.180;2022-12-29T08:19:54;7.50;99.90
41816;DHT22;27814;53.452;-6.180;2022-12-29T08:22:22;7.50;99.90
41816;DHT22;27814;53.452;-6.180;2022-12-29T08:24:51;7.50;99.90
41816;DHT22;27814;53.452;-6.180;2022-12-29T08:27:21;7.50;99.90
41816;DHT22;27814;53.452;-6.180;2022-12-29T08:29:49;7.50;99.90
41816;DHT22;27814;53.452;-6.180;2022-12-29T08:32:18;7.50;99.90
41816;DHT22;27814;53.452;-6.180;2022-12-29T08:34:46;7.50;99.90
41816;DHT22;27814;53.452;-6.180;2022-12-29T08:37:15;7.50;99.90
41816;DHT22;27814;53.452;-6.180;2022-12-29T08:39:43;7.50;99.90
41816;DHT22;27814;53.452;-6.180;2022-12-29T08:42:11;7.50;99.90
41816;DHT22;27814;53.452;-6.180;2022-12-29T08:44:41;7.50;99.90
41816;DHT22;27814;53.452;-6.180;2022-12-29T08:47:11;7.50;99.90
41816;DHT22;27814;53.452;-6.180;2022-12-29T08:49:39;7.50;99.90
41816;DHT22;27814;53.452;-6.180;2022-12-29T08:52:07;7.50;99.90
41816;DHT22;27814;53.452;-6.180;2022-12-29T08:54:36;7.50;99.90
41816;DHT22;27814;53.452;-6.180;2022-12-29T08:57:04;7.50;99.90
41816;DHT22;27814;53.452;-6.180;2022-12-29T08:59:32;7.50;99.90
41816;DHT22;27814;53.452;-6.180;2022-12-29T09:02:02;7.50;99.90
41816;DHT22;27814;53.452;-6.180;2022-12-29T09:04:31;7.50;99.90
41816;DHT22;27814;53.452;-6.180;2022-12-29T09:07:00;7.50;99.90
41816;DHT22;27814;53.452;-6.180;2022-12-29T09:09:29;7.50;99.90
41816;DHT22;27814;53.452;-6.180;2022-12-29T09:11:57;7.50;99.90
41816;DHT22;27814;53.452;-6.180;2022-12-29T09:14:25;7.50;99.90
41816;DHT22;27814;53.452;-6.180;2022-12-29T09:16:54;7.50;99.90
41816;DHT22;27814;53.452;-6.180;2022-12-29T09:19:41;7.50;99.90
41816;DHT22;27814;53.452;-6.180;2022-12-29T09:22:09;7.50;99.90
41816;DHT22;27814;53.452;-6.180;2022-12-29T09:24:38;7.50;99.90
41816;DHT22;27814;53.452;-6.180;2022-12-29T09:27:06;7.50;99.90
41816;DHT22;27814;53.452;-6.180;2022-12-29T09:29:34;7.50;99.90
41816;DHT22;27814;53.452;-6.180;2022-12-29T09:32:03;7.50;99.90
41816;DHT22;27814;53.452;-6.180;2022-12-29T09:34:34;7.50;99.90
41816;DHT22;27814;53.452;-6.180;2022-12-29T09:37:03;7.50;99.90
41816;DHT22;27814;53.452;-6.180;2022-12-29T09:39:32;7.50;99.90
41816;DHT22;27814;53.452;-6.180;2022-12-29T09:42:06;7.50;99.90
41816;DHT22;27814;53.452;-6.180;2022-12-29T09:44:48;7.50;99.90
41816;DHT22;27814;53.452;-6.180;2022-12-29T09:47:21;7.50;99.90
41816;DHT22;27814;53.452;-6.180;2022-12-29T09:49:53;7.50;99.90
41816;DHT22;27814;53.452;-6.180;2022-12-29T09:52:26;7.50;99.90
41816;DHT22;27814;53.452;-6.180;2022-12-29T09:54:59;7.50;99.90
41816;DHT22;27814;53.452;-6.180;2022-12-29T09:57:42;7.60;99.90
41816;DHT22;27814;53.452;-6.180;2022-12-29T10:00:14;7.60;99.90
41816;DHT22;27814;53.452;-6.180;2022-12-29T10:02:48;7.50;99.90
41816;DHT22;27814;53.452;-6.180;2022-12-29T10:05:25;7.60;99.90
41816;DHT22;27814;53.452;-6.180;2022-12-29T10:08:09;7.60;99.90
41816;DHT22;27814;53.452;-6.180;2022-12-29T10:10:48;7.60;99.90
41816;DHT22;27814;53.452;-6.180;2022-12-29T10:13:32;7.60;99.90
41816;DHT22;27814;53.452;-6.180;2022-12-29T10:16:10;7.60;99.90
41816;DHT22;27814;53.452;-6.180;2022-12-29T10:19:03;7.60;99.90
41816;DHT22;27814;53.452;-6.180;2022-12-29T10:21:43;7.60;99.90
41816;DHT22;27814;53.452;-6.180;2022-12-29T10:24:17;7.60;99.90
41816;DHT22;27814;53.452;-6.180;2022-12-29T10:26:48;7.60;99.90
41816;DHT22;27814;53.452;-6.180;2022-12-29T10:29:20;7.70;99.90
41816;DHT22;27814;53.452;-6.180;2022-12-29T10:31:54;7.70;99.90
41816;DHT22;27814;53.452;-6.180;2022-12-29T10:34:28;7.70;99.90
41816;DHT22;27814;53.452;-6.180;2022-12-29T10:37:03;7.80;99.90
41816;DHT22;27814;53.452;-6.180;2022-12-29T10:39:40;7.90;99.90
41816;DHT22;27814;53.452;-6.180;2022-12-29T10:42:15;8.00;99.90
41816;DHT22;27814;53.452;-6.180;2022-12-29T10:44:44;8.00;99.90
41816;DHT22;27814;53.452;-6.180;2022-12-29T10:47:16;8.10;99.90
41816;DHT22;27814;53.452;-6.180;2022-12-29T10:49:47;8.20;99.90
41816;DHT22;27814;53.452;-6.180;2022-12-29T10:52:18;8.20;99.90
41816;DHT22;27814;53.452;-6.180;2022-12-29T10:54:52;8.30;99.90
41816;DHT22;27814;53.452;-6.180;2022-12-29T10:57:26;8.30;99.90
41816;DHT22;27814;53.452;-6.180;2022-12-29T10:59:57;8.40;99.90
41816;DHT22;27814;53.452;-6.180;2022-12-29T11:02:48;8.40;99.90
41816;DHT22;27814;53.452;-6.180;2022-12-29T11:05:25;8.40;99.90
41816;DHT22;27814;53.452;-6.180;2022-12-29T11:07:59;8.40;99.90
41816;DHT22;27814;53.452;-6.180;2022-12-29T11:10:35;8.40;99.90
41816;DHT22;27814;53.452;-6.180;2022-12-29T11:13:12;8.40;99.90
41816;DHT22;27814;53.452;-6.180;2022-12-29T11:15:42;8.40;99.90
41816;DHT22;27814;53.452;-6.180;2022-12-29T11:18:22;8.40;99.90
41816;DHT22;27814;53.452;-6.180;2022-12-29T11:20:52;8.40;99.90
41816;DHT22;27814;53.452;-6.180;2022-12-29T11:23:25;8.50;99.90
41816;DHT22;27814;53.452;-6.180;2022-12-29T11:26:22;8.50;99.90
41816;DHT22;27814;53.452;-6.180;2022-12-29T11:29:20;8.50;99.90
41816;DHT22;27814;53.452;-6.180;2022-12-29T11:31:51;8.50;99.90
41816;DHT22;27814;53.452;-6.180;2022-12-29T11:34:21;8.50;99.90
41816;DHT22;27814;53.452;-6.180;2022-12-29T11:36:52;8.50;99.90
41816;DHT22;27814;53.452;-6.180;2022-12-29T11:39:28;8.50;99.90
41816;DHT22;27814;53.452;-6.180;2022-12-29T11:41:59;8.50;99.90
41816;DHT22;27814;53.452;-6.180;2022-12-29T11:44:35;8.50;99.90
41816;DHT22;27814;53.452;-6.180;2022-12-29T11:47:07;8.40;99.90
41816;DHT22;27814;53.452;-6.180;2022-12-29T11:49:38;8.40;99.90
41816;DHT22;27814;53.452;-6.180;2022-12-29T11:52:07;8.40;99.90
41816;DHT22;27814;53.452;-6.180;2022-12-29T11:54:38;8.40;99.90
41816;DHT22;27814;53.452;-6.180;2022-12-29T11:57:12;8.40;99.90
41816;DHT22;27814;53.452;-6.180;2022-12-29T11:59:43;8.40;99.90
41816;DHT22;27814;53.452;-6.180;2022-12-29T12:02:36;8.40;99.90
41816;DHT22;27814;53.452;-6.180;2022-12-29T12:05:19;8.40;99.90
41816;DHT22;27814;53.452;-6.180;2022-12-29T12:07:52;8.40;99.90
41816;DHT22;27814;53.452;-6.180;2022-12-29T12:10:26;8.40;99.90
41816;DHT22;27814;53.452;-6.180;2022-12-29T12:13:03;8.40;99.90
41816;DHT22;27814;53.452;-6.180;2022-12-29T12:15:39;8.40;99.90
41816;DHT22;27814;53.452;-6.180;2022-12-29T12:18:18;8.40;99.90
41816;DHT22;27814;53.452;-6.180;2022-12-29T12:20:57;8.50;99.90
41816;DHT22;27814;53.452;-6.180;2022-12-29T12:23:36;8.50;99.90
41816;DHT22;27814;53.452;-6.180;2022-12-29T12:26:11;8.50;99.90
41816;DHT22;27814;53.452;-6.180;2022-12-29T12:28:48;8.50;99.90
41816;DHT22;27814;53.452;-6.180;2022-12-29T12:31:23;8.50;99.90
41816;DHT22;27814;53.452;-6.180;2022-12-29T12:33:59;8.50;99.90
41816;DHT22;27814;53.452;-6.180;2022-12-29T12:36:49;8.50;99.90
41816;DHT22;27814;53.452;-6.180;2022-12-29T12:39:25;8.50;99.90
41816;DHT22;27814;53.452;-6.180;2022-12-29T12:42:03;8.50;99.90
41816;DHT22;27814;53.452;-6.180;2022-12-29T12:44:40;8.50;99.90
41816;DHT22;27814;53.452;-6.180;2022-12-29T12:47:36;8.50;99.90
41816;DHT22;27814;53.452;-6.180;2022-12-29T12:50:24;8.60;99.90
41816;DHT22;27814;53.452;-6.180;2022-12-29T12:53:18;8.60;99.90
41816;DHT22;27814;53.452;-6.180;2022-12-29T12:56:15;8.60;99.90
41816;DHT22;27814;53.452;-6.180;2022-12-29T12:58:52;8.60;99.90
41816;DHT22;27814;53.452;-6.180;2022-12-29T13:01:33;8.60;99.90
41816;DHT22;27814;53.452;-6.180;2022-12-29T13:07:16;8.60;99.90
41816;DHT22;27814;53.452;-6.180;2022-12-29T13:10:00;8.60;99.90
41816;DHT22;27814;53.452;-6.180;2022-12-29T13:12:38;8.70;99.90
41816;DHT22;27814;53.452;-6.180;2022-12-29T13:15:18;8.70;99.90
41816;DHT22;27814;53.452;-6.180;2022-12-29T13:17:55;8.80;99.90
41816;DHT22;27814;53.452;-6.180;2022-12-29T13:20:32;8.80;99.90
41816;DHT22;27814;53.452;-6.180;2022-12-29T13:23:12;8.80;99.90
41816;DHT22;27814;53.452;-6.180;2022-12-29T13:25:48;8.80;99.90
41816;DHT22;27814;53.452;-6.180;2022-12-29T13:28:22;8.80;99.90
41816;DHT22;27814;53.452;-6.180;2022-12-29T13:30:59;8.80;99.90
41816;DHT22;27814;53.452;-6.180;2022-12-29T13:33:36;8.80;99.90
41816;DHT22;27814;53.452;-6.180;2022-12-29T13:36:12;8.70;99.90
41816;DHT22;27814;53.452;-6.180;2022-12-29T13:38:44;8.70;99.90
41816;DHT22;27814;53.452;-6.180;2022-12-29T13:41:19;8.70;99.90
41816;DHT22;27814;53.452;-6.180;2022-12-29T13:43:49;8.60;99.90
41816;DHT22;27814;53.452;-6.180;2022-12-29T13:46:23;8.60;99.90
41816;DHT22;27814;53.452;-6.180;2022-12-29T13:48:56;8.60;99.90
41816;DHT22;27814;53.452;-6.180;2022-12-29T13:51:26;8.60;99.90
41816;DHT22;27814;53.452;-6.180;2022-12-29T13:54:03;8.60;99.90
41816;DHT22;27814;53.452;-6.180;2022-12-29T13:56:39;8.60;99.90
41816;DHT22;27814;53.452;-6.180;2022-12-29T13:59:17;8.60;99.90
41816;DHT22;27814;53.452;-6.180;2022-12-29T14:01:52;8.60;99.90
41816;DHT22;27814;53.452;-6.180;2022-12-29T14:04:24;8.60;99.90
41816;DHT22;27814;53.452;-6.180;2022-12-29T14:07:01;8.70;99.90
41816;DHT22;27814;53.452;-6.180;2022-12-29T14:09:41;8.70;99.90
41816;DHT22;27814;53.452;-6.180;2022-12-29T14:12:37;8.70;99.90
41816;DHT22;27814;53.452;-6.180;2022-12-29T14:15:15;8.70;99.90
41816;DHT22;27814;53.452;-6.180;2022-12-29T14:18:05;8.70;99.90
41816;DHT22;27814;53.452;-6.180;2022-12-29T14:20:41;8.70;99.90
41816;DHT22;27814;53.452;-6.180;2022-12-29T14:23:27;8.70;99.90
41816;DHT22;27814;53.452;-6.180;2022-12-29T14:26:14;8.70;99.90
41816;DHT22;27814;53.452;-6.180;2022-12-29T14:28:45;8.70;99.90
41816;DHT22;27814;53.452;-6.180;2022-12-29T14:31:33;8.70;99.90
41816;DHT22;27814;53.452;-6.180;2022-12-29T14:34:28;8.70;99.90
41816;DHT22;27814;53.452;-6.180;2022-12-29T14:36:58;8.70;99.90
41816;DHT22;27814;53.452;-6.180;2022-12-29T14:39:38;8.60;99.90
41816;DHT22;27814;53.452;-6.180;2022-12-29T14:42:13;8.60;99.90
41816;DHT22;27814;53.452;-6.180;2022-12-29T14:44:48;8.60;99.90
41816;DHT22;27814;53.452;-6.180;2022-12-29T14:47:20;8.60;99.90
41816;DHT22;27814;53.452;-6.180;2022-12-29T14:49:51;8.50;99.90
41816;DHT22;27814;53.452;-6.180;2022-12-29T14:52:22;8.60;99.90
41816;DHT22;27814;53.452;-6.180;2022-12-29T14:54:52;8.50;99.90
41816;DHT22;27814;53.452;-6.180;2022-12-29T14:57:26;8.50;99.90
41816;DHT22;27814;53.452;-6.180;2022-12-29T15:00:04;8.50;99.90
41816;DHT22;27814;53.452;-6.180;2022-12-29T15:02:37;8.50;99.90
41816;DHT22;27814;53.452;-6.180;2022-12-29T15:05:27;8.40;99.90
41816;DHT22;27814;53.452;-6.180;2022-12-29T15:07:58;8.40;99.90
41816;DHT22;27814;53.452;-6.180;2022-12-29T15:10:35;8.40;99.90
41816;DHT22;27814;53.452;-6.180;2022-12-29T15:13:13;8.40;99.90
41816;DHT22;27814;53.452;-6.180;2022-12-29T15:15:44;8.30;99.90
41816;DHT22;27814;53.452;-6.180;2022-12-29T15:18:24;8.30;99.90
41816;DHT22;27814;53.452;-6.180;2022-12-29T15:20:55;8.30;99.90
41816;DHT22;27814;53.452;-6.180;2022-12-29T15:23:25;8.30;99.90
41816;DHT22;27814;53.452;-6.180;2022-12-29T15:25:56;8.30;99.90
41816;DHT22;27814;53.452;-6.180;2022-12-29T15:28:25;8.30;99.90
41816;DHT22;27814;53.452;-6.180;2022-12-29T15:31:02;8.30;99.90
41816;DHT22;27814;53.452;-6.180;2022-12-29T15:33:38;8.20;99.90
41816;DHT22;27814;53.452;-6.180;2022-12-29T15:36:12;8.20;99.90
41816;DHT22;27814;53.452;-6.180;2022-12-29T15:38:40;8.20;99.90
41816;DHT22;27814;53.452;-6.180;2022-12-29T15:41:23;8.20;99.90
41816;DHT22;27814;53.452;-6.180;2022-12-29T15:44:01;8.10;99.90
41816;DHT22;27814;53.452;-6.180;2022-12-29T15:46:34;8.10;99.90
41816;DHT22;27814;53.452;-6.180;2022-12-29T15:49:05;8.00;99.90
41816;DHT22;27814;53.452;-6.180;2022-12-29T15:51:35;8.00;99.90
41816;DHT22;27814;53.452;-6.180;2022-12-29T15:54:05;8.00;99.90
41816;DHT22;27814;53.452;-6.180;2022-12-29T15:56:33;7.90;99.90
41816;DHT22;27814;53.452;-6.180;2022-12-29T15:59:02;7.90;99.90
41816;DHT22;27814;53.452;-6.180;2022-12-29T16:01:33;7.90;99.90
41816;DHT22;27814;53.452;-6.180;2022-12-29T16:04:05;7.80;99.90
41816;DHT22;27814;53.452;-6.180;2022-12-29T16:06:35;7.80;99.90
41816;DHT22;27814;53.452;-6.180;2022-12-29T16:09:05;7.80;99.90
41816;DHT22;27814;53.452;-6.180;2022-12-29T16:11:36;7.80;99.90
41816;DHT22;27814;53.452;-6.180;2022-12-29T16:14:08;7.80;99.90
41816;DHT22;27814;53.452;-6.180;2022-12-29T16:16:41;7.70;99.90